sensor_id;sensor_type;location;lat;lon;timestamp;P1;durP1;ratioP1;P2;durP2;ratioP2
7487;SDS011;3785;52.260;4.728;2024-01-27T00:00:38;7.57;;;1.38;;
7487;SDS011;3785;52.260;4.728;2024-01-27T00:03:59;6.53;;;1.23;;
7487;SDS011;3785;52.260;4.728;2024-01-27T00:07:19;8.95;;;1.52;;
7487;SDS011;3785;52.260;4.728;2024-01-27T00:10:40;4.88;;;1.27;;
7487;SDS011;3785;52.260;4.728;2024-01-27T00:14:00;4.30;;;1.52;;
7487;SDS011;3785;52.260;4.728;2024-01-27T00:17:22;7.55;;;1.40;;
7487;SDS011;3785;52.260;4.728;2024-01-27T00:20:45;2.92;;;1.38;;
7487;SDS011;3785;52.260;4.728;2024-01-27T00:24:05;2.38;;;1.08;;
7487;SDS011;3785;52.260;4.728;2024-01-27T00:27:26;11.45;;;1.52;;
7487;SDS011;3785;52.260;4.728;2024-01-27T00:30:47;2.97;;;0.77;;
7487;SDS011;3785;52.260;4.728;2024-01-27T00:34:07;5.13;;;0.90;;
7487;SDS011;3785;52.260;4.728;2024-01-27T00:37:28;4.47;;;1.35;;
7487;SDS011;3785;52.260;4.728;2024-01-27T00:40:49;4.47;;;1.10;;
7487;SDS011;3785;52.260;4.728;2024-01-27T00:44:09;3.63;;;1.13;;
7487;SDS011;3785;52.260;4.728;2024-01-27T00:47:30;4.70;;;1.27;;
7487;SDS011;3785;52.260;4.728;2024-01-27T00:50:51;5.07;;;1.48;;
7487;SDS011;3785;52.260;4.728;2024-01-27T00:54:11;2.13;;;1.05;;
7487;SDS011;3785;52.260;4.728;2024-01-27T00:57:32;10.60;;;1.55;;
7487;SDS011;3785;52.260;4.728;2024-01-27T01:00:53;3.85;;;1.10;;
7487;SDS011;3785;52.260;4.728;2024-01-27T01:04:13;4.97;;;1.50;;
7487;SDS011;3785;52.260;4.728;2024-01-27T01:07:34;4.20;;;1.05;;
7487;SDS011;3785;52.260;4.728;2024-01-27T01:10:54;4.40;;;1.40;;
7487;SDS011;3785;52.260;4.728;2024-01-27T01:14:15;3.53;;;1.30;;
7487;SDS011;3785;52.260;4.728;2024-01-27T01:17:36;6.35;;;1.98;;
7487;SDS011;3785;52.260;4.728;2024-01-27T01:20:57;3.75;;;1.35;;
7487;SDS011;3785;52.260;4.728;2024-01-27T01:24:17;4.57;;;0.95;;
7487;SDS011;3785;52.260;4.728;2024-01-27T01:27:38;5.68;;;1.33;;
7487;SDS011;3785;52.260;4.728;2024-01-27T01:30:58;7.80;;;1.42;;
7487;SDS011;3785;52.260;4.728;2024-01-27T01:34:19;4.88;;;1.25;;
7487;SDS011;3785;52.260;4.728;2024-01-27T01:37:40;2.53;;;1.00;;
7487;SDS011;3785;52.260;4.728;2024-01-27T01:41:00;8.35;;;1.42;;
7487;SDS011;3785;52.260;4.728;2024-01-27T01:44:21;5.72;;;1.30;;
7487;SDS011;3785;52.260;4.728;2024-01-27T01:47:42;8.18;;;1.52;;
7487;SDS011;3785;52.260;4.728;2024-01-27T01:51:02;5.18;;;1.40;;
7487;SDS011;3785;52.260;4.728;2024-01-27T01:54:24;3.83;;;1.38;;
7487;SDS011;3785;52.260;4.728;2024-01-27T01:57:47;5.25;;;1.20;;
7487;SDS011;3785;52.260;4.728;2024-01-27T02:01:09;5.53;;;1.23;;
7487;SDS011;3785;52.260;4.728;2024-01-27T02:04:38;2.10;;;1.02;;
7487;SDS011;3785;52.260;4.728;2024-01-27T02:08:02;4.10;;;1.20;;
7487;SDS011;3785;52.260;4.728;2024-01-27T02:11:24;2.10;;;1.05;;
7487;SDS011;3785;52.260;4.728;2024-01-27T02:14:44;5.15;;;1.63;;
7487;SDS011;3785;52.260;4.728;2024-01-27T02:18:05;3.30;;;1.13;;
7487;SDS011;3785;52.260;4.728;2024-01-27T02:21:26;5.60;;;1.50;;
7487;SDS011;3785;52.260;4.728;2024-01-27T02:24:46;2.15;;;1.15;;
7487;SDS011;3785;52.260;4.728;2024-01-27T02:28:07;13.98;;;2.00;;
7487;SDS011;3785;52.260;4.728;2024-01-27T02:31:27;5.60;;;1.10;;
7487;SDS011;3785;52.260;4.728;2024-01-27T02:34:48;6.75;;;0.95;;
7487;SDS011;3785;52.260;4.728;2024-01-27T02:38:09;4.25;;;1.02;;
7487;SDS011;3785;52.260;4.728;2024-01-27T02:41:30;6.25;;;1.10;;
7487;SDS011;3785;52.260;4.728;2024-01-27T02:44:50;3.00;;;1.23;;
7487;SDS011;3785;52.260;4.728;2024-01-27T02:48:11;2.35;;;0.85;;
7487;SDS011;3785;52.260;4.728;2024-01-27T02:51:32;6.05;;;1.33;;
7487;SDS011;3785;52.260;4.728;2024-01-27T02:54:53;5.53;;;1.30;;
7487;SDS011;3785;52.260;4.728;2024-01-27T02:58:13;4.40;;;1.65;;
7487;SDS011;3785;52.260;4.728;2024-01-27T03:01:34;3.97;;;1.50;;
7487;SDS011;3785;52.260;4.728;2024-01-27T03:04:55;4.28;;;1.15;;
7487;SDS011;3785;52.260;4.728;2024-01-27T03:08:15;5.18;;;1.48;;
7487;SDS011;3785;52.260;4.728;2024-01-27T03:11:36;5.07;;;1.45;;
7487;SDS011;3785;52.260;4.728;2024-01-27T03:14:56;5.45;;;1.30;;
7487;SDS011;3785;52.260;4.728;2024-01-27T03:18:17;4.43;;;1.52;;
7487;SDS011;3785;52.260;4.728;2024-01-27T03:21:38;6.68;;;1.70;;
7487;SDS011;3785;52.260;4.728;2024-01-27T03:24:58;5.38;;;1.40;;
7487;SDS011;3785;52.260;4.728;2024-01-27T03:28:19;4.32;;;1.50;;
7487;SDS011;3785;52.260;4.728;2024-01-27T03:31:40;3.63;;;1.25;;
7487;SDS011;3785;52.260;4.728;2024-01-27T03:35:00;6.18;;;1.33;;
7487;SDS011;3785;52.260;4.728;2024-01-27T03:38:22;4.18;;;1.48;;
7487;SDS011;3785;52.260;4.728;2024-01-27T03:41:43;9.38;;;2.45;;
7487;SDS011;3785;52.260;4.728;2024-01-27T03:45:04;7.97;;;1.75;;
7487;SDS011;3785;52.260;4.728;2024-01-27T03:48:25;5.00;;;1.70;;
7487;SDS011;3785;52.260;4.728;2024-01-27T03:51:46;5.15;;;1.60;;
7487;SDS011;3785;52.260;4.728;2024-01-27T03:55:07;8.70;;;1.42;;
7487;SDS011;3785;52.260;4.728;2024-01-27T03:58:27;7.32;;;1.70;;
7487;SDS011;3785;52.260;4.728;2024-01-27T04:01:48;3.30;;;1.65;;
7487;SDS011;3785;52.260;4.728;2024-01-27T04:05:09;6.95;;;1.50;;
7487;SDS011;3785;52.260;4.728;2024-01-27T04:08:30;4.03;;;1.40;;
7487;SDS011;3785;52.260;4.728;2024-01-27T04:11:50;2.80;;;1.05;;
7487;SDS011;3785;52.260;4.728;2024-01-27T04:15:11;5.32;;;1.75;;
7487;SDS011;3785;52.260;4.728;2024-01-27T04:18:32;3.63;;;1.25;;
7487;SDS011;3785;52.260;4.728;2024-01-27T04:21:52;6.60;;;1.95;;
7487;SDS011;3785;52.260;4.728;2024-01-27T04:25:13;6.88;;;1.45;;
7487;SDS011;3785;52.260;4.728;2024-01-27T04:28:33;6.22;;;1.80;;
7487;SDS011;3785;52.260;4.728;2024-01-27T04:31:54;4.70;;;1.75;;
7487;SDS011;3785;52.260;4.728;2024-01-27T04:35:15;5.47;;;1.60;;
7487;SDS011;3785;52.260;4.728;2024-01-27T04:38:36;6.25;;;1.80;;
7487;SDS011;3785;52.260;4.728;2024-01-27T04:41:56;7.57;;;1.67;;
7487;SDS011;3785;52.260;4.728;2024-01-27T04:45:17;3.83;;;1.52;;
7487;SDS011;3785;52.260;4.728;2024-01-27T04:48:38;4.07;;;1.33;;
7487;SDS011;3785;52.260;4.728;2024-01-27T04:51:59;6.78;;;1.70;;
7487;SDS011;3785;52.260;4.728;2024-01-27T04:55:20;4.80;;;1.83;;
7487;SDS011;3785;52.260;4.728;2024-01-27T04:58:41;6.55;;;1.45;;
7487;SDS011;3785;52.260;4.728;2024-01-27T05:02:01;5.75;;;1.85;;
7487;SDS011;3785;52.260;4.728;2024-01-27T05:05:22;7.05;;;1.52;;
7487;SDS011;3785;52.260;4.728;2024-01-27T05:08:43;4.93;;;1.65;;
7487;SDS011;3785;52.260;4.728;2024-01-27T05:12:03;5.97;;;1.50;;
7487;SDS011;3785;52.260;4.728;2024-01-27T05:15:24;6.05;;;2.05;;
7487;SDS011;3785;52.260;4.728;2024-01-27T05:18:45;4.93;;;2.10;;
7487;SDS011;3785;52.260;4.728;2024-01-27T05:22:06;4.47;;;1.77;;
7487;SDS011;3785;52.260;4.728;2024-01-27T05:25:26;4.45;;;1.63;;
7487;SDS011;3785;52.260;4.728;2024-01-27T05:28:47;7.50;;;1.73;;
7487;SDS011;3785;52.260;4.728;2024-01-27T05:32:08;3.10;;;1.70;;
7487;SDS011;3785;52.260;4.728;2024-01-27T05:35:28;4.15;;;1.90;;
7487;SDS011;3785;52.260;4.728;2024-01-27T05:38:49;4.00;;;1.77;;
7487;SDS011;3785;52.260;4.728;2024-01-27T05:42:10;5.22;;;2.33;;
7487;SDS011;3785;52.260;4.728;2024-01-27T05:45:30;7.95;;;2.88;;
7487;SDS011;3785;52.260;4.728;2024-01-27T05:48:51;5.03;;;2.10;;
7487;SDS011;3785;52.260;4.728;2024-01-27T05:52:13;4.35;;;2.30;;
7487;SDS011;3785;52.260;4.728;2024-01-27T05:55:34;6.25;;;2.60;;
7487;SDS011;3785;52.260;4.728;2024-01-27T05:58:55;4.05;;;2.42;;
7487;SDS011;3785;52.260;4.728;2024-01-27T06:02:15;6.45;;;2.35;;
7487;SDS011;3785;52.260;4.728;2024-01-27T06:05:37;7.38;;;2.60;;
7487;SDS011;3785;52.260;4.728;2024-01-27T06:08:58;6.20;;;2.55;;
7487;SDS011;3785;52.260;4.728;2024-01-27T06:12:19;7.53;;;2.92;;
7487;SDS011;3785;52.260;4.728;2024-01-27T06:15:40;6.53;;;3.47;;
7487;SDS011;3785;52.260;4.728;2024-01-27T06:19:00;9.90;;;3.55;;
7487;SDS011;3785;52.260;4.728;2024-01-27T06:22:21;10.80;;;3.70;;
7487;SDS011;3785;52.260;4.728;2024-01-27T06:25:42;12.73;;;3.92;;
7487;SDS011;3785;52.260;4.728;2024-01-27T06:29:03;4.35;;;3.25;;
7487;SDS011;3785;52.260;4.728;2024-01-27T06:32:24;8.02;;;3.63;;
7487;SDS011;3785;52.260;4.728;2024-01-27T06:35:44;7.47;;;3.67;;
7487;SDS011;3785;52.260;4.728;2024-01-27T06:39:05;7.45;;;3.03;;
7487;SDS011;3785;52.260;4.728;2024-01-27T06:42:26;5.78;;;2.80;;
7487;SDS011;3785;52.260;4.728;2024-01-27T06:45:46;11.15;;;3.17;;
7487;SDS011;3785;52.260;4.728;2024-01-27T06:49:07;9.52;;;3.60;;
7487;SDS011;3785;52.260;4.728;2024-01-27T06:52:27;6.13;;;3.25;;
7487;SDS011;3785;52.260;4.728;2024-01-27T06:55:48;7.50;;;2.78;;
7487;SDS011;3785;52.260;4.728;2024-01-27T06:59:09;4.30;;;2.88;;
7487;SDS011;3785;52.260;4.728;2024-01-27T07:02:29;3.55;;;2.58;;
7487;SDS011;3785;52.260;4.728;2024-01-27T07:05:50;6.30;;;2.60;;
7487;SDS011;3785;52.260;4.728;2024-01-27T07:09:10;6.85;;;3.05;;
7487;SDS011;3785;52.260;4.728;2024-01-27T07:12:31;5.95;;;2.75;;
7487;SDS011;3785;52.260;4.728;2024-01-27T07:15:52;11.35;;;3.13;;
7487;SDS011;3785;52.260;4.728;2024-01-27T07:19:12;7.03;;;2.88;;
7487;SDS011;3785;52.260;4.728;2024-01-27T07:22:33;7.05;;;3.60;;
7487;SDS011;3785;52.260;4.728;2024-01-27T07:25:54;8.82;;;3.63;;
7487;SDS011;3785;52.260;4.728;2024-01-27T07:29:14;5.95;;;3.22;;
7487;SDS011;3785;52.260;4.728;2024-01-27T07:32:35;4.03;;;2.97;;
7487;SDS011;3785;52.260;4.728;2024-01-27T07:35:56;5.40;;;3.22;;
7487;SDS011;3785;52.260;4.728;2024-01-27T07:39:17;5.95;;;2.88;;
7487;SDS011;3785;52.260;4.728;2024-01-27T07:42:37;6.55;;;2.72;;
7487;SDS011;3785;52.260;4.728;2024-01-27T07:45:58;6.15;;;3.45;;
7487;SDS011;3785;52.260;4.728;2024-01-27T07:49:19;6.00;;;3.72;;
7487;SDS011;3785;52.260;4.728;2024-01-27T07:52:39;5.70;;;3.15;;
7487;SDS011;3785;52.260;4.728;2024-01-27T07:56:00;9.93;;;3.17;;
7487;SDS011;3785;52.260;4.728;2024-01-27T07:59:20;4.85;;;2.85;;
7487;SDS011;3785;52.260;4.728;2024-01-27T08:02:41;10.23;;;4.07;;
7487;SDS011;3785;52.260;4.728;2024-01-27T08:06:05;6.32;;;3.55;;
7487;SDS011;3785;52.260;4.728;2024-01-27T08:09:29;9.30;;;3.60;;
7487;SDS011;3785;52.260;4.728;2024-01-27T08:12:50;6.35;;;4.00;;
7487;SDS011;3785;52.260;4.728;2024-01-27T08:16:10;6.93;;;4.38;;
7487;SDS011;3785;52.260;4.728;2024-01-27T08:19:32;13.10;;;4.38;;
7487;SDS011;3785;52.260;4.728;2024-01-27T08:22:53;10.55;;;4.00;;
7487;SDS011;3785;52.260;4.728;2024-01-27T08:26:14;7.53;;;3.70;;
7487;SDS011;3785;52.260;4.728;2024-01-27T08:29:34;7.88;;;4.25;;
7487;SDS011;3785;52.260;4.728;2024-01-27T08:32:55;12.98;;;4.55;;
7487;SDS011;3785;52.260;4.728;2024-01-27T08:36:16;11.43;;;4.95;;
7487;SDS011;3785;52.260;4.728;2024-01-27T08:39:36;10.68;;;5.20;;
7487;SDS011;3785;52.260;4.728;2024-01-27T08:42:57;5.65;;;3.80;;
7487;SDS011;3785;52.260;4.728;2024-01-27T08:46:17;8.98;;;4.40;;
7487;SDS011;3785;52.260;4.728;2024-01-27T08:49:41;9.85;;;5.00;;
7487;SDS011;3785;52.260;4.728;2024-01-27T08:53:01;8.45;;;4.65;;
7487;SDS011;3785;52.260;4.728;2024-01-27T08:56:22;11.00;;;4.90;;
7487;SDS011;3785;52.260;4.728;2024-01-27T08:59:42;9.43;;;4.68;;
7487;SDS011;3785;52.260;4.728;2024-01-27T09:03:03;11.20;;;4.82;;
7487;SDS011;3785;52.260;4.728;2024-01-27T09:06:24;8.93;;;4.72;;
7487;SDS011;3785;52.260;4.728;2024-01-27T09:09:44;8.93;;;4.88;;
7487;SDS011;3785;52.260;4.728;2024-01-27T09:13:05;9.88;;;4.93;;
7487;SDS011;3785;52.260;4.728;2024-01-27T09:16:26;11.63;;;4.95;;
7487;SDS011;3785;52.260;4.728;2024-01-27T09:19:46;8.68;;;5.10;;
7487;SDS011;3785;52.260;4.728;2024-01-27T09:23:07;8.88;;;4.60;;
7487;SDS011;3785;52.260;4.728;2024-01-27T09:26:28;7.80;;;5.32;;
7487;SDS011;3785;52.260;4.728;2024-01-27T09:29:48;10.02;;;5.28;;
7487;SDS011;3785;52.260;4.728;2024-01-27T09:33:09;7.68;;;4.63;;
7487;SDS011;3785;52.260;4.728;2024-01-27T09:36:30;7.95;;;4.45;;
7487;SDS011;3785;52.260;4.728;2024-01-27T09:39:50;10.88;;;4.63;;
7487;SDS011;3785;52.260;4.728;2024-01-27T09:43:12;10.60;;;4.97;;
7487;SDS011;3785;52.260;4.728;2024-01-27T09:46:33;9.10;;;4.22;;
7487;SDS011;3785;52.260;4.728;2024-01-27T09:49:54;10.25;;;4.50;;
7487;SDS011;3785;52.260;4.728;2024-01-27T09:53:15;16.23;;;5.13;;
7487;SDS011;3785;52.260;4.728;2024-01-27T09:56:35;8.88;;;4.38;;
7487;SDS011;3785;52.260;4.728;2024-01-27T09:59:56;10.68;;;5.07;;
7487;SDS011;3785;52.260;4.728;2024-01-27T10:03:17;9.75;;;5.43;;
7487;SDS011;3785;52.260;4.728;2024-01-27T10:06:43;12.35;;;5.03;;
7487;SDS011;3785;52.260;4.728;2024-01-27T10:10:04;11.85;;;5.85;;
7487;SDS011;3785;52.260;4.728;2024-01-27T10:13:25;10.63;;;5.57;;
7487;SDS011;3785;52.260;4.728;2024-01-27T10:16:46;8.95;;;4.65;;
7487;SDS011;3785;52.260;4.728;2024-01-27T10:20:07;12.35;;;4.80;;
7487;SDS011;3785;52.260;4.728;2024-01-27T10:23:29;10.70;;;4.57;;
7487;SDS011;3785;52.260;4.728;2024-01-27T10:26:50;8.63;;;4.55;;
7487;SDS011;3785;52.260;4.728;2024-01-27T10:30:17;8.45;;;5.15;;
7487;SDS011;3785;52.260;4.728;2024-01-27T10:33:39;10.93;;;4.40;;
7487;SDS011;3785;52.260;4.728;2024-01-27T10:36:59;13.75;;;5.15;;
7487;SDS011;3785;52.260;4.728;2024-01-27T10:40:20;11.02;;;5.78;;
7487;SDS011;3785;52.260;4.728;2024-01-27T10:43:41;8.60;;;5.45;;
7487;SDS011;3785;52.260;4.728;2024-01-27T10:47:01;13.23;;;5.72;;
7487;SDS011;3785;52.260;4.728;2024-01-27T10:50:23;9.32;;;5.70;;
7487;SDS011;3785;52.260;4.728;2024-01-27T10:53:44;11.48;;;5.20;;
7487;SDS011;3785;52.260;4.728;2024-01-27T10:57:07;13.10;;;6.00;;
7487;SDS011;3785;52.260;4.728;2024-01-27T11:00:29;12.38;;;4.82;;
7487;SDS011;3785;52.260;4.728;2024-01-27T11:03:52;9.60;;;5.30;;
7487;SDS011;3785;52.260;4.728;2024-01-27T11:07:16;10.52;;;5.18;;
7487;SDS011;3785;52.260;4.728;2024-01-27T11:10:37;8.57;;;4.95;;
7487;SDS011;3785;52.260;4.728;2024-01-27T11:13:58;8.30;;;4.97;;
7487;SDS011;3785;52.260;4.728;2024-01-27T11:17:19;7.20;;;4.43;;
7487;SDS011;3785;52.260;4.728;2024-01-27T11:20:43;7.65;;;4.57;;
7487;SDS011;3785;52.260;4.728;2024-01-27T11:24:17;9.63;;;4.82;;
7487;SDS011;3785;52.260;4.728;2024-01-27T11:27:38;7.85;;;5.15;;
7487;SDS011;3785;52.260;4.728;2024-01-27T11:31:03;8.18;;;4.97;;
7487;SDS011;3785;52.260;4.728;2024-01-27T11:34:24;7.35;;;3.92;;
7487;SDS011;3785;52.260;4.728;2024-01-27T11:37:44;7.65;;;4.22;;
7487;SDS011;3785;52.260;4.728;2024-01-27T11:41:05;9.90;;;4.40;;
7487;SDS011;3785;52.260;4.728;2024-01-27T11:44:26;10.68;;;4.13;;
7487;SDS011;3785;52.260;4.728;2024-01-27T11:47:46;7.10;;;3.50;;
7487;SDS011;3785;52.260;4.728;2024-01-27T11:51:09;14.52;;;4.57;;
7487;SDS011;3785;52.260;4.728;2024-01-27T11:54:31;8.23;;;3.25;;
7487;SDS011;3785;52.260;4.728;2024-01-27T11:57:51;7.82;;;3.67;;
7487;SDS011;3785;52.260;4.728;2024-01-27T12:01:12;8.07;;;3.55;;
7487;SDS011;3785;52.260;4.728;2024-01-27T12:04:34;8.43;;;3.65;;
7487;SDS011;3785;52.260;4.728;2024-01-27T12:07:57;9.05;;;3.97;;
7487;SDS011;3785;52.260;4.728;2024-01-27T12:11:18;7.95;;;3.65;;
7487;SDS011;3785;52.260;4.728;2024-01-27T12:18:05;6.15;;;2.80;;
7487;SDS011;3785;52.260;4.728;2024-01-27T12:21:26;6.90;;;3.05;;
7487;SDS011;3785;52.260;4.728;2024-01-27T12:24:46;10.15;;;3.17;;
7487;SDS011;3785;52.260;4.728;2024-01-27T12:28:07;5.00;;;2.67;;
7487;SDS011;3785;52.260;4.728;2024-01-27T12:31:29;8.75;;;2.92;;
7487;SDS011;3785;52.260;4.728;2024-01-27T12:34:50;6.57;;;2.55;;
7487;SDS011;3785;52.260;4.728;2024-01-27T12:38:10;8.13;;;2.90;;
7487;SDS011;3785;52.260;4.728;2024-01-27T12:41:31;6.05;;;2.83;;
7487;SDS011;3785;52.260;4.728;2024-01-27T12:44:54;8.73;;;2.78;;
7487;SDS011;3785;52.260;4.728;2024-01-27T12:48:15;8.25;;;2.67;;
7487;SDS011;3785;52.260;4.728;2024-01-27T12:51:36;7.45;;;2.83;;
7487;SDS011;3785;52.260;4.728;2024-01-27T12:54:57;8.07;;;2.85;;
7487;SDS011;3785;52.260;4.728;2024-01-27T12:58:17;8.60;;;2.63;;
7487;SDS011;3785;52.260;4.728;2024-01-27T13:01:38;9.48;;;2.75;;
7487;SDS011;3785;52.260;4.728;2024-01-27T13:04:58;6.80;;;2.65;;
7487;SDS011;3785;52.260;4.728;2024-01-27T13:08:19;5.65;;;2.90;;
7487;SDS011;3785;52.260;4.728;2024-01-27T13:11:40;4.05;;;2.42;;
7487;SDS011;3785;52.260;4.728;2024-01-27T13:15:00;8.95;;;2.97;;
7487;SDS011;3785;52.260;4.728;2024-01-27T13:18:21;6.88;;;2.40;;
7487;SDS011;3785;52.260;4.728;2024-01-27T13:21:41;8.57;;;2.88;;
7487;SDS011;3785;52.260;4.728;2024-01-27T13:25:02;7.35;;;3.28;;
7487;SDS011;3785;52.260;4.728;2024-01-27T13:28:25;8.18;;;3.00;;
7487;SDS011;3785;52.260;4.728;2024-01-27T13:31:46;5.28;;;3.03;;
7487;SDS011;3785;52.260;4.728;2024-01-27T13:35:07;9.65;;;2.88;;
7487;SDS011;3785;52.260;4.728;2024-01-27T13:38:28;6.72;;;3.15;;
7487;SDS011;3785;52.260;4.728;2024-01-27T13:41:49;7.18;;;3.10;;
7487;SDS011;3785;52.260;4.728;2024-01-27T13:45:09;8.25;;;3.40;;
7487;SDS011;3785;52.260;4.728;2024-01-27T13:48:31;6.95;;;3.20;;
7487;SDS011;3785;52.260;4.728;2024-01-27T13:51:51;6.80;;;2.88;;
7487;SDS011;3785;52.260;4.728;2024-01-27T13:55:12;6.70;;;2.53;;
7487;SDS011;3785;52.260;4.728;2024-01-27T13:58:33;6.82;;;2.60;;
7487;SDS011;3785;52.260;4.728;2024-01-27T14:01:53;7.30;;;2.80;;
7487;SDS011;3785;52.260;4.728;2024-01-27T14:05:15;8.73;;;2.65;;
7487;SDS011;3785;52.260;4.728;2024-01-27T14:08:37;5.45;;;2.65;;
7487;SDS011;3785;52.260;4.728;2024-01-27T14:11:59;8.68;;;2.55;;
7487;SDS011;3785;52.260;4.728;2024-01-27T14:15:19;6.95;;;2.92;;
7487;SDS011;3785;52.260;4.728;2024-01-27T14:18:40;10.55;;;2.92;;
7487;SDS011;3785;52.260;4.728;2024-01-27T14:22:02;5.53;;;2.22;;
7487;SDS011;3785;52.260;4.728;2024-01-27T14:25:23;5.18;;;2.17;;
7487;SDS011;3785;52.260;4.728;2024-01-27T14:28:43;6.97;;;2.45;;
7487;SDS011;3785;52.260;4.728;2024-01-27T14:32:05;7.85;;;2.50;;
7487;SDS011;3785;52.260;4.728;2024-01-27T14:35:26;4.63;;;2.63;;
7487;SDS011;3785;52.260;4.728;2024-01-27T14:38:47;7.60;;;2.53;;
7487;SDS011;3785;52.260;4.728;2024-01-27T14:42:08;7.90;;;2.55;;
7487;SDS011;3785;52.260;4.728;2024-01-27T14:45:28;7.50;;;2.42;;
7487;SDS011;3785;52.260;4.728;2024-01-27T14:48:50;7.18;;;2.72;;
7487;SDS011;3785;52.260;4.728;2024-01-27T14:52:10;5.32;;;2.25;;
7487;SDS011;3785;52.260;4.728;2024-01-27T14:55:34;7.40;;;2.33;;
7487;SDS011;3785;52.260;4.728;2024-01-27T14:58:54;6.57;;;2.78;;
7487;SDS011;3785;52.260;4.728;2024-01-27T15:02:16;6.90;;;2.35;;
7487;SDS011;3785;52.260;4.728;2024-01-27T15:05:37;4.00;;;1.77;;
7487;SDS011;3785;52.260;4.728;2024-01-27T15:09:00;11.25;;;2.67;;
7487;SDS011;3785;52.260;4.728;2024-01-27T15:12:21;6.50;;;2.40;;
7487;SDS011;3785;52.260;4.728;2024-01-27T15:15:43;7.70;;;2.47;;
7487;SDS011;3785;52.260;4.728;2024-01-27T15:19:03;7.95;;;2.47;;
7487;SDS011;3785;52.260;4.728;2024-01-27T15:22:24;7.50;;;2.47;;
7487;SDS011;3785;52.260;4.728;2024-01-27T15:25:44;8.35;;;2.42;;
7487;SDS011;3785;52.260;4.728;2024-01-27T15:29:05;6.28;;;2.17;;
7487;SDS011;3785;52.260;4.728;2024-01-27T15:32:26;6.03;;;2.33;;
7487;SDS011;3785;52.260;4.728;2024-01-27T15:35:47;5.32;;;2.30;;
7487;SDS011;3785;52.260;4.728;2024-01-27T15:39:07;4.97;;;2.40;;
7487;SDS011;3785;52.260;4.728;2024-01-27T15:42:28;6.82;;;2.45;;
7487;SDS011;3785;52.260;4.728;2024-01-27T15:45:49;5.18;;;2.30;;
7487;SDS011;3785;52.260;4.728;2024-01-27T15:49:12;12.35;;;2.58;;
7487;SDS011;3785;52.260;4.728;2024-01-27T15:52:32;5.05;;;2.47;;
7487;SDS011;3785;52.260;4.728;2024-01-27T15:55:53;6.78;;;1.90;;
7487;SDS011;3785;52.260;4.728;2024-01-27T15:59:14;12.00;;;2.35;;
7487;SDS011;3785;52.260;4.728;2024-01-27T16:02:34;4.60;;;2.30;;
7487;SDS011;3785;52.260;4.728;2024-01-27T16:05:55;6.32;;;2.20;;
7487;SDS011;3785;52.260;4.728;2024-01-27T16:09:16;6.20;;;2.58;;
7487;SDS011;3785;52.260;4.728;2024-01-27T16:12:36;12.68;;;3.25;;
7487;SDS011;3785;52.260;4.728;2024-01-27T16:15:57;6.25;;;2.60;;
7487;SDS011;3785;52.260;4.728;2024-01-27T16:19:18;6.55;;;2.47;;
7487;SDS011;3785;52.260;4.728;2024-01-27T16:22:40;6.40;;;3.08;;
7487;SDS011;3785;52.260;4.728;2024-01-27T16:26:00;11.45;;;3.08;;
7487;SDS011;3785;52.260;4.728;2024-01-27T16:29:21;7.18;;;2.95;;
7487;SDS011;3785;52.260;4.728;2024-01-27T16:32:42;6.10;;;3.28;;
7487;SDS011;3785;52.260;4.728;2024-01-27T16:36:02;3.65;;;2.55;;
7487;SDS011;3785;52.260;4.728;2024-01-27T16:39:24;9.52;;;3.95;;
7487;SDS011;3785;52.260;4.728;2024-01-27T16:42:45;4.93;;;3.17;;
7487;SDS011;3785;52.260;4.728;2024-01-27T16:46:06;7.75;;;4.20;;
7487;SDS011;3785;52.260;4.728;2024-01-27T16:49:28;10.98;;;3.60;;
7487;SDS011;3785;52.260;4.728;2024-01-27T16:52:49;7.85;;;3.70;;
7487;SDS011;3785;52.260;4.728;2024-01-27T16:56:10;7.07;;;3.45;;
7487;SDS011;3785;52.260;4.728;2024-01-27T16:59:31;7.72;;;3.33;;
7487;SDS011;3785;52.260;4.728;2024-01-27T17:02:51;10.00;;;3.85;;
7487;SDS011;3785;52.260;4.728;2024-01-27T17:06:12;8.85;;;3.60;;
7487;SDS011;3785;52.260;4.728;2024-01-27T17:09:33;7.35;;;3.83;;
7487;SDS011;3785;52.260;4.728;2024-01-27T17:12:57;11.18;;;3.80;;
7487;SDS011;3785;52.260;4.728;2024-01-27T17:16:18;9.13;;;3.67;;
7487;SDS011;3785;52.260;4.728;2024-01-27T17:19:39;7.68;;;3.58;;
7487;SDS011;3785;52.260;4.728;2024-01-27T17:22:59;4.97;;;3.17;;
7487;SDS011;3785;52.260;4.728;2024-01-27T17:26:20;7.95;;;3.15;;
7487;SDS011;3785;52.260;4.728;2024-01-27T17:29:41;8.73;;;3.78;;
7487;SDS011;3785;52.260;4.728;2024-01-27T17:33:01;8.35;;;3.58;;
7487;SDS011;3785;52.260;4.728;2024-01-27T17:36:22;8.15;;;3.45;;
7487;SDS011;3785;52.260;4.728;2024-01-27T17:39:43;12.35;;;3.72;;
7487;SDS011;3785;52.260;4.728;2024-01-27T17:43:04;8.32;;;3.50;;
7487;SDS011;3785;52.260;4.728;2024-01-27T17:46:25;7.47;;;3.05;;
7487;SDS011;3785;52.260;4.728;2024-01-27T17:49:45;7.15;;;3.80;;
7487;SDS011;3785;52.260;4.728;2024-01-27T17:53:06;9.52;;;3.95;;
7487;SDS011;3785;52.260;4.728;2024-01-27T17:56:27;9.75;;;3.40;;
7487;SDS011;3785;52.260;4.728;2024-01-27T17:59:47;7.05;;;3.88;;
7487;SDS011;3785;52.260;4.728;2024-01-27T18:03:08;8.82;;;4.43;;
7487;SDS011;3785;52.260;4.728;2024-01-27T18:06:28;8.70;;;3.83;;
7487;SDS011;3785;52.260;4.728;2024-01-27T18:09:49;10.68;;;3.67;;
7487;SDS011;3785;52.260;4.728;2024-01-27T18:13:10;5.45;;;3.22;;
7487;SDS011;3785;52.260;4.728;2024-01-27T18:16:31;9.25;;;3.70;;
7487;SDS011;3785;52.260;4.728;2024-01-27T18:19:51;10.85;;;4.10;;
7487;SDS011;3785;52.260;4.728;2024-01-27T18:23:12;9.68;;;3.60;;
7487;SDS011;3785;52.260;4.728;2024-01-27T18:26:33;13.25;;;3.83;;
7487;SDS011;3785;52.260;4.728;2024-01-27T18:29:53;7.50;;;4.10;;
7487;SDS011;3785;52.260;4.728;2024-01-27T18:33:14;8.13;;;4.13;;
7487;SDS011;3785;52.260;4.728;2024-01-27T18:36:34;8.13;;;4.13;;
7487;SDS011;3785;52.260;4.728;2024-01-27T18:39:55;8.32;;;3.85;;
7487;SDS011;3785;52.260;4.728;2024-01-27T18:43:20;8.60;;;4.25;;
7487;SDS011;3785;52.260;4.728;2024-01-27T18:46:40;7.18;;;4.10;;
7487;SDS011;3785;52.260;4.728;2024-01-27T18:50:01;9.68;;;4.13;;
7487;SDS011;3785;52.260;4.728;2024-01-27T18:53:22;9.95;;;4.35;;
7487;SDS011;3785;52.260;4.728;2024-01-27T18:56:43;7.72;;;4.13;;
7487;SDS011;3785;52.260;4.728;2024-01-27T19:00:04;10.43;;;3.72;;
7487;SDS011;3785;52.260;4.728;2024-01-27T19:03:28;9.70;;;4.25;;
7487;SDS011;3785;52.260;4.728;2024-01-27T19:06:48;7.25;;;4.32;;
7487;SDS011;3785;52.260;4.728;2024-01-27T19:10:09;8.75;;;3.90;;
7487;SDS011;3785;52.260;4.728;2024-01-27T19:13:30;8.07;;;4.45;;
7487;SDS011;3785;52.260;4.728;2024-01-27T19:16:51;13.13;;;4.65;;
7487;SDS011;3785;52.260;4.728;2024-01-27T19:20:12;7.07;;;3.95;;
7487;SDS011;3785;52.260;4.728;2024-01-27T19:23:32;11.65;;;4.72;;
7487;SDS011;3785;52.260;4.728;2024-01-27T19:26:53;8.30;;;3.78;;
7487;SDS011;3785;52.260;4.728;2024-01-27T19:30:13;11.73;;;4.28;;
7487;SDS011;3785;52.260;4.728;2024-01-27T19:33:34;8.13;;;4.57;;
7487;SDS011;3785;52.260;4.728;2024-01-27T19:36:55;9.55;;;4.18;;
7487;SDS011;3785;52.260;4.728;2024-01-27T19:40:16;11.98;;;5.15;;
7487;SDS011;3785;52.260;4.728;2024-01-27T19:43:37;10.52;;;5.55;;
7487;SDS011;3785;52.260;4.728;2024-01-27T19:46:59;9.52;;;4.82;;
7487;SDS011;3785;52.260;4.728;2024-01-27T19:50:20;10.77;;;5.70;;
7487;SDS011;3785;52.260;4.728;2024-01-27T19:53:40;18.10;;;6.60;;
7487;SDS011;3785;52.260;4.728;2024-01-27T19:57:01;12.40;;;5.95;;
7487;SDS011;3785;52.260;4.728;2024-01-27T20:00:22;10.98;;;6.00;;
7487;SDS011;3785;52.260;4.728;2024-01-27T20:03:49;15.65;;;6.03;;
7487;SDS011;3785;52.260;4.728;2024-01-27T20:07:09;8.50;;;5.07;;
7487;SDS011;3785;52.260;4.728;2024-01-27T20:10:30;10.93;;;5.07;;
7487;SDS011;3785;52.260;4.728;2024-01-27T20:13:51;12.02;;;5.30;;
7487;SDS011;3785;52.260;4.728;2024-01-27T20:17:11;12.63;;;4.97;;
7487;SDS011;3785;52.260;4.728;2024-01-27T20:20:32;10.60;;;4.95;;
7487;SDS011;3785;52.260;4.728;2024-01-27T20:23:53;9.60;;;4.82;;
7487;SDS011;3785;52.260;4.728;2024-01-27T20:27:14;10.10;;;4.13;;
7487;SDS011;3785;52.260;4.728;2024-01-27T20:30:34;10.95;;;4.43;;
7487;SDS011;3785;52.260;4.728;2024-01-27T20:33:57;10.40;;;5.10;;
7487;SDS011;3785;52.260;4.728;2024-01-27T20:37:17;9.93;;;4.88;;
7487;SDS011;3785;52.260;4.728;2024-01-27T20:40:38;9.73;;;4.78;;
7487;SDS011;3785;52.260;4.728;2024-01-27T20:43:59;11.35;;;4.82;;
7487;SDS011;3785;52.260;4.728;2024-01-27T20:47:20;12.85;;;4.72;;